Nearby METAR Reports

 

NZWN - Wellington Intl, New Zealand
Distance from station: E 67km
Updated: 17/10/2018 23:00
Clear
Clear
 Wind from N
Wind: N 28 km/h
Temperature: 12°C
Dew Point: 8°C
Humidity: 77%
Barometer: 1019 hPa
Clouds: Clear
Visibility: 10 km
2018/10/17 10:00 NZWN 171000Z AUTO 01015KT 9999 NCD 12/08 Q1019 NOSIG
NZCH - Christchurch Int, New Zealand
Distance from station: SSW 269km
Updated: 17/10/2018 23:00
Clear
Clear
 Wind from WNW
Wind: WNW 6 km/h
Temperature: 14°C
Dew Point: 7°C
Humidity: 63%
Barometer: 1014 hPa
Clouds: Clear
Visibility: 10 km
2018/10/17 10:00 NZCH 171000Z AUTO 29003KT 9999 NCD 14/07 Q1014 NOSIG
 
NZAA - Auckland Intl Ar, New Zealand
Distance from station: N 480km
Updated: 17/10/2018 23:00
Mostly cloudy
Mostly cloudy
 Wind from WSW
Wind: WSW 20 km/h
Temperature: 12°C
Dew Point: 11°C
Humidity: 94%
Barometer: 1023 hPa
Clouds: Mostly cloudy
Visibility: 10 km
Cloud details: Mostly cloudy 518 m
Mostly cloudy 853 m
2018/10/17 10:00 NZAA 171000Z AUTO 25011KT 9999 BKN017/// BKN028/// 12/11 Q1023 NOSIG